sensor_id;sensor_type;location;lat;lon;timestamp;P1;durP1;ratioP1;P2;durP2;ratioP2
2021;SDS011;1015;49.756;6.994;2023-06-10T00:00:43;12.60;;;11.60;;
2021;SDS011;1015;49.756;6.994;2023-06-10T00:03:10;13.83;;;12.60;;
2021;SDS011;1015;49.756;6.994;2023-06-10T00:05:38;13.13;;;11.87;;
2021;SDS011;1015;49.756;6.994;2023-06-10T00:08:06;12.90;;;11.90;;
2021;SDS011;1015;49.756;6.994;2023-06-10T00:10:33;16.37;;;12.90;;
2021;SDS011;1015;49.756;6.994;2023-06-10T00:13:01;13.63;;;12.33;;
2021;SDS011;1015;49.756;6.994;2023-06-10T00:15:29;13.10;;;12.00;;
2021;SDS011;1015;49.756;6.994;2023-06-10T00:17:57;11.70;;;10.80;;
2021;SDS011;1015;49.756;6.994;2023-06-10T00:20:26;12.97;;;11.97;;
2021;SDS011;1015;49.756;6.994;2023-06-10T00:22:53;12.33;;;11.13;;
2021;SDS011;1015;49.756;6.994;2023-06-10T00:25:22;12.33;;;11.20;;
2021;SDS011;1015;49.756;6.994;2023-06-10T00:27:49;13.53;;;12.40;;
2021;SDS011;1015;49.756;6.994;2023-06-10T00:30:16;12.33;;;11.33;;
2021;SDS011;1015;49.756;6.994;2023-06-10T00:32:43;13.87;;;12.47;;
2021;SDS011;1015;49.756;6.994;2023-06-10T00:35:12;12.37;;;11.40;;
2021;SDS011;1015;49.756;6.994;2023-06-10T00:37:39;12.73;;;11.70;;
2021;SDS011;1015;49.756;6.994;2023-06-10T00:40:07;12.17;;;11.03;;
2021;SDS011;1015;49.756;6.994;2023-06-10T00:42:34;13.93;;;12.73;;
2021;SDS011;1015;49.756;6.994;2023-06-10T00:45:02;13.07;;;12.07;;
2021;SDS011;1015;49.756;6.994;2023-06-10T00:47:29;12.63;;;11.63;;
2021;SDS011;1015;49.756;6.994;2023-06-10T00:49:57;14.07;;;12.67;;
2021;SDS011;1015;49.756;6.994;2023-06-10T00:52:27;12.60;;;11.50;;
2021;SDS011;1015;49.756;6.994;2023-06-10T00:54:55;13.07;;;11.80;;
2021;SDS011;1015;49.756;6.994;2023-06-10T00:57:22;12.03;;;11.03;;
2021;SDS011;1015;49.756;6.994;2023-06-10T00:59:50;12.33;;;11.33;;
2021;SDS011;1015;49.756;6.994;2023-06-10T01:02:17;13.50;;;12.30;;
2021;SDS011;1015;49.756;6.994;2023-06-10T01:04:45;11.90;;;10.93;;
2021;SDS011;1015;49.756;6.994;2023-06-10T01:07:15;12.40;;;11.40;;
2021;SDS011;1015;49.756;6.994;2023-06-10T01:09:47;12.20;;;11.20;;
2021;SDS011;1015;49.756;6.994;2023-06-10T01:12:17;11.93;;;11.03;;
2021;SDS011;1015;49.756;6.994;2023-06-10T01:14:46;12.67;;;11.30;;
2021;SDS011;1015;49.756;6.994;2023-06-10T01:17:14;12.07;;;11.07;;
2021;SDS011;1015;49.756;6.994;2023-06-10T01:19:43;12.17;;;11.10;;
2021;SDS011;1015;49.756;6.994;2023-06-10T01:22:11;12.60;;;11.40;;
2021;SDS011;1015;49.756;6.994;2023-06-10T01:24:41;13.03;;;11.73;;
2021;SDS011;1015;49.756;6.994;2023-06-10T01:27:09;12.93;;;11.73;;
2021;SDS011;1015;49.756;6.994;2023-06-10T01:29:40;12.20;;;11.20;;
2021;SDS011;1015;49.756;6.994;2023-06-10T01:32:10;12.30;;;11.20;;
2021;SDS011;1015;49.756;6.994;2023-06-10T01:34:39;12.13;;;11.00;;
2021;SDS011;1015;49.756;6.994;2023-06-10T01:37:09;11.97;;;10.87;;
2021;SDS011;1015;49.756;6.994;2023-06-10T01:39:37;11.77;;;10.77;;
2021;SDS011;1015;49.756;6.994;2023-06-10T01:42:05;11.90;;;10.80;;
2021;SDS011;1015;49.756;6.994;2023-06-10T01:44:33;11.83;;;10.83;;
2021;SDS011;1015;49.756;6.994;2023-06-10T01:47:00;12.03;;;11.00;;
2021;SDS011;1015;49.756;6.994;2023-06-10T01:49:27;11.40;;;10.50;;
2021;SDS011;1015;49.756;6.994;2023-06-10T01:51:55;12.50;;;11.40;;
2021;SDS011;1015;49.756;6.994;2023-06-10T01:54:22;12.30;;;11.00;;
2021;SDS011;1015;49.756;6.994;2023-06-10T01:56:51;12.70;;;11.70;;
2021;SDS011;1015;49.756;6.994;2023-06-10T01:59:18;12.43;;;11.30;;
2021;SDS011;1015;49.756;6.994;2023-06-10T02:01:45;12.53;;;11.53;;
2021;SDS011;1015;49.756;6.994;2023-06-10T02:04:12;12.13;;;11.03;;
2021;SDS011;1015;49.756;6.994;2023-06-10T02:06:39;13.23;;;12.03;;
2021;SDS011;1015;49.756;6.994;2023-06-10T02:09:07;11.93;;;10.87;;
2021;SDS011;1015;49.756;6.994;2023-06-10T02:11:34;11.83;;;10.83;;
2021;SDS011;1015;49.756;6.994;2023-06-10T02:14:03;12.93;;;11.83;;
2021;SDS011;1015;49.756;6.994;2023-06-10T02:16:30;13.17;;;12.07;;
2021;SDS011;1015;49.756;6.994;2023-06-10T02:18:58;12.27;;;11.17;;
2021;SDS011;1015;49.756;6.994;2023-06-10T02:21:25;13.73;;;11.13;;
2021;SDS011;1015;49.756;6.994;2023-06-10T02:23:52;12.73;;;11.40;;
2021;SDS011;1015;49.756;6.994;2023-06-10T02:26:20;18.73;;;11.77;;
2021;SDS011;1015;49.756;6.994;2023-06-10T02:28:48;12.23;;;11.03;;
2021;SDS011;1015;49.756;6.994;2023-06-10T02:31:17;12.03;;;11.03;;
2021;SDS011;1015;49.756;6.994;2023-06-10T02:33:44;11.43;;;10.40;;
2021;SDS011;1015;49.756;6.994;2023-06-10T02:36:11;12.37;;;11.33;;
2021;SDS011;1015;49.756;6.994;2023-06-10T02:38:40;11.87;;;10.87;;
2021;SDS011;1015;49.756;6.994;2023-06-10T02:41:07;12.10;;;10.90;;
2021;SDS011;1015;49.756;6.994;2023-06-10T02:43:35;11.77;;;10.77;;
2021;SDS011;1015;49.756;6.994;2023-06-10T02:46:02;12.73;;;11.43;;
2021;SDS011;1015;49.756;6.994;2023-06-10T02:48:30;12.50;;;11.20;;
2021;SDS011;1015;49.756;6.994;2023-06-10T02:50:58;12.87;;;11.67;;
2021;SDS011;1015;49.756;6.994;2023-06-10T02:53:25;11.90;;;10.90;;
2021;SDS011;1015;49.756;6.994;2023-06-10T02:55:52;12.23;;;11.13;;
2021;SDS011;1015;49.756;6.994;2023-06-10T02:58:19;11.90;;;10.90;;
2021;SDS011;1015;49.756;6.994;2023-06-10T03:00:47;12.13;;;10.93;;
2021;SDS011;1015;49.756;6.994;2023-06-10T03:03:15;11.40;;;10.40;;
2021;SDS011;1015;49.756;6.994;2023-06-10T03:05:43;11.90;;;11.00;;
2021;SDS011;1015;49.756;6.994;2023-06-10T03:08:10;12.03;;;11.00;;
2021;SDS011;1015;49.756;6.994;2023-06-10T03:10:37;12.67;;;11.37;;
2021;SDS011;1015;49.756;6.994;2023-06-10T03:13:05;11.30;;;10.20;;
2021;SDS011;1015;49.756;6.994;2023-06-10T03:15:32;10.97;;;9.97;;
2021;SDS011;1015;49.756;6.994;2023-06-10T03:18:01;11.53;;;10.53;;
2021;SDS011;1015;49.756;6.994;2023-06-10T03:20:28;12.00;;;11.00;;
2021;SDS011;1015;49.756;6.994;2023-06-10T03:22:57;12.07;;;10.97;;
2021;SDS011;1015;49.756;6.994;2023-06-10T03:25:24;11.20;;;10.00;;
2021;SDS011;1015;49.756;6.994;2023-06-10T03:27:53;14.80;;;10.77;;
2021;SDS011;1015;49.756;6.994;2023-06-10T03:30:21;11.50;;;10.50;;
2021;SDS011;1015;49.756;6.994;2023-06-10T03:32:48;11.97;;;10.77;;
2021;SDS011;1015;49.756;6.994;2023-06-10T03:35:15;11.27;;;10.17;;
2021;SDS011;1015;49.756;6.994;2023-06-10T03:37:42;11.13;;;10.23;;
2021;SDS011;1015;49.756;6.994;2023-06-10T03:40:11;11.80;;;10.60;;
2021;SDS011;1015;49.756;6.994;2023-06-10T03:42:38;11.53;;;10.30;;
2021;SDS011;1015;49.756;6.994;2023-06-10T03:45:06;11.63;;;10.43;;
2021;SDS011;1015;49.756;6.994;2023-06-10T03:47:34;10.73;;;9.63;;
2021;SDS011;1015;49.756;6.994;2023-06-10T03:50:02;11.53;;;10.40;;
2021;SDS011;1015;49.756;6.994;2023-06-10T03:52:29;11.40;;;10.30;;
2021;SDS011;1015;49.756;6.994;2023-06-10T03:54:56;11.17;;;10.07;;
2021;SDS011;1015;49.756;6.994;2023-06-10T03:57:25;13.03;;;10.13;;
2021;SDS011;1015;49.756;6.994;2023-06-10T03:59:53;12.53;;;10.10;;
2021;SDS011;1015;49.756;6.994;2023-06-10T04:02:21;11.40;;;10.30;;
2021;SDS011;1015;49.756;6.994;2023-06-10T04:04:48;10.93;;;9.93;;
2021;SDS011;1015;49.756;6.994;2023-06-10T04:07:16;12.40;;;10.30;;
2021;SDS011;1015;49.756;6.994;2023-06-10T04:09:44;11.73;;;10.73;;
2021;SDS011;1015;49.756;6.994;2023-06-10T04:12:11;12.50;;;10.20;;
2021;SDS011;1015;49.756;6.994;2023-06-10T04:14:40;10.77;;;9.87;;
2021;SDS011;1015;49.756;6.994;2023-06-10T04:17:08;10.67;;;9.67;;
2021;SDS011;1015;49.756;6.994;2023-06-10T04:19:35;10.77;;;9.80;;
2021;SDS011;1015;49.756;6.994;2023-06-10T04:22:03;9.80;;;8.97;;
2021;SDS011;1015;49.756;6.994;2023-06-10T04:24:30;11.00;;;10.00;;
2021;SDS011;1015;49.756;6.994;2023-06-10T04:26:57;10.93;;;9.77;;
2021;SDS011;1015;49.756;6.994;2023-06-10T04:29:25;10.87;;;9.80;;
2021;SDS011;1015;49.756;6.994;2023-06-10T04:31:54;10.57;;;9.67;;
2021;SDS011;1015;49.756;6.994;2023-06-10T04:34:21;10.80;;;9.83;;
2021;SDS011;1015;49.756;6.994;2023-06-10T04:36:50;10.63;;;9.73;;
2021;SDS011;1015;49.756;6.994;2023-06-10T04:39:17;10.57;;;9.47;;
2021;SDS011;1015;49.756;6.994;2023-06-10T04:41:45;10.77;;;9.93;;
2021;SDS011;1015;49.756;6.994;2023-06-10T04:44:12;10.03;;;9.13;;
2021;SDS011;1015;49.756;6.994;2023-06-10T04:46:39;10.90;;;9.90;;
2021;SDS011;1015;49.756;6.994;2023-06-10T04:49:08;10.40;;;9.50;;
2021;SDS011;1015;49.756;6.994;2023-06-10T04:51:35;11.53;;;10.43;;
2021;SDS011;1015;49.756;6.994;2023-06-10T04:54:02;10.03;;;9.23;;
2021;SDS011;1015;49.756;6.994;2023-06-10T04:56:30;11.03;;;9.93;;
2021;SDS011;1015;49.756;6.994;2023-06-10T04:58:58;9.87;;;9.03;;
2021;SDS011;1015;49.756;6.994;2023-06-10T05:01:25;10.13;;;9.13;;
2021;SDS011;1015;49.756;6.994;2023-06-10T05:03:53;10.57;;;9.57;;
2021;SDS011;1015;49.756;6.994;2023-06-10T05:06:21;9.83;;;9.00;;
2021;SDS011;1015;49.756;6.994;2023-06-10T05:08:48;10.73;;;9.63;;
2021;SDS011;1015;49.756;6.994;2023-06-10T05:11:16;9.40;;;8.53;;
2021;SDS011;1015;49.756;6.994;2023-06-10T05:13:43;10.07;;;9.17;;
2021;SDS011;1015;49.756;6.994;2023-06-10T05:16:10;9.67;;;8.80;;
2021;SDS011;1015;49.756;6.994;2023-06-10T05:18:37;9.30;;;8.60;;
2021;SDS011;1015;49.756;6.994;2023-06-10T05:21:05;9.77;;;8.97;;
2021;SDS011;1015;49.756;6.994;2023-06-10T05:23:33;10.20;;;9.20;;
2021;SDS011;1015;49.756;6.994;2023-06-10T05:26:01;9.70;;;8.90;;
2021;SDS011;1015;49.756;6.994;2023-06-10T05:28:28;10.10;;;9.20;;
2021;SDS011;1015;49.756;6.994;2023-06-10T05:30:56;9.77;;;8.87;;
2021;SDS011;1015;49.756;6.994;2023-06-10T05:33:23;9.93;;;9.13;;
2021;SDS011;1015;49.756;6.994;2023-06-10T05:35:50;9.73;;;8.90;;
2021;SDS011;1015;49.756;6.994;2023-06-10T05:38:17;10.20;;;9.30;;
2021;SDS011;1015;49.756;6.994;2023-06-10T05:40:46;9.17;;;8.47;;
2021;SDS011;1015;49.756;6.994;2023-06-10T05:43:14;9.90;;;9.00;;
2021;SDS011;1015;49.756;6.994;2023-06-10T05:45:41;9.27;;;8.47;;
2021;SDS011;1015;49.756;6.994;2023-06-10T05:48:09;9.97;;;9.10;;
2021;SDS011;1015;49.756;6.994;2023-06-10T05:50:36;9.20;;;8.50;;
2021;SDS011;1015;49.756;6.994;2023-06-10T05:53:05;9.20;;;8.50;;
2021;SDS011;1015;49.756;6.994;2023-06-10T05:55:39;9.40;;;8.53;;
2021;SDS011;1015;49.756;6.994;2023-06-10T05:58:08;8.67;;;7.87;;
2021;SDS011;1015;49.756;6.994;2023-06-10T06:00:37;9.50;;;8.47;;
2021;SDS011;1015;49.756;6.994;2023-06-10T06:03:05;9.03;;;8.33;;
2021;SDS011;1015;49.756;6.994;2023-06-10T06:05:33;8.70;;;8.00;;
2021;SDS011;1015;49.756;6.994;2023-06-10T06:08:02;8.87;;;8.13;;
2021;SDS011;1015;49.756;6.994;2023-06-10T06:10:29;8.57;;;7.87;;
2021;SDS011;1015;49.756;6.994;2023-06-10T06:12:57;8.50;;;7.80;;
2021;SDS011;1015;49.756;6.994;2023-06-10T06:15:25;14.90;;;7.87;;
2021;SDS011;1015;49.756;6.994;2023-06-10T06:17:52;8.10;;;7.50;;
2021;SDS011;1015;49.756;6.994;2023-06-10T06:20:20;8.07;;;7.47;;
2021;SDS011;1015;49.756;6.994;2023-06-10T06:22:48;8.30;;;7.70;;
2021;SDS011;1015;49.756;6.994;2023-06-10T06:25:15;7.70;;;7.10;;
2021;SDS011;1015;49.756;6.994;2023-06-10T06:27:42;8.17;;;7.57;;
2021;SDS011;1015;49.756;6.994;2023-06-10T06:30:10;8.90;;;8.10;;
2021;SDS011;1015;49.756;6.994;2023-06-10T06:32:39;7.87;;;7.20;;
2021;SDS011;1015;49.756;6.994;2023-06-10T06:35:06;7.20;;;6.60;;
2021;SDS011;1015;49.756;6.994;2023-06-10T06:37:34;7.93;;;7.13;;
2021;SDS011;1015;49.756;6.994;2023-06-10T06:40:01;8.43;;;7.37;;
2021;SDS011;1015;49.756;6.994;2023-06-10T06:42:28;7.43;;;6.83;;
2021;SDS011;1015;49.756;6.994;2023-06-10T06:44:56;7.30;;;6.73;;
2021;SDS011;1015;49.756;6.994;2023-06-10T06:47:23;8.07;;;7.37;;
2021;SDS011;1015;49.756;6.994;2023-06-10T06:49:53;7.27;;;6.57;;
2021;SDS011;1015;49.756;6.994;2023-06-10T06:52:20;7.57;;;6.97;;
2021;SDS011;1015;49.756;6.994;2023-06-10T06:54:48;7.97;;;7.17;;
2021;SDS011;1015;49.756;6.994;2023-06-10T06:57:15;8.30;;;7.53;;
2021;SDS011;1015;49.756;6.994;2023-06-10T06:59:42;7.67;;;7.07;;
2021;SDS011;1015;49.756;6.994;2023-06-10T07:02:10;7.43;;;6.83;;
2021;SDS011;1015;49.756;6.994;2023-06-10T07:04:37;9.40;;;7.03;;
2021;SDS011;1015;49.756;6.994;2023-06-10T07:07:07;7.47;;;6.87;;
2021;SDS011;1015;49.756;6.994;2023-06-10T07:09:35;6.70;;;6.20;;
2021;SDS011;1015;49.756;6.994;2023-06-10T07:12:02;7.57;;;6.97;;
2021;SDS011;1015;49.756;6.994;2023-06-10T07:14:30;7.67;;;6.97;;
2021;SDS011;1015;49.756;6.994;2023-06-10T07:16:57;7.37;;;6.77;;
2021;SDS011;1015;49.756;6.994;2023-06-10T07:19:25;8.90;;;7.27;;
2021;SDS011;1015;49.756;6.994;2023-06-10T07:21:52;7.27;;;6.40;;
2021;SDS011;1015;49.756;6.994;2023-06-10T07:24:20;7.50;;;6.90;;
2021;SDS011;1015;49.756;6.994;2023-06-10T07:26:48;7.23;;;6.63;;
2021;SDS011;1015;49.756;6.994;2023-06-10T07:29:15;7.60;;;7.00;;
2021;SDS011;1015;49.756;6.994;2023-06-10T07:31:42;7.73;;;7.03;;
2021;SDS011;1015;49.756;6.994;2023-06-10T07:34:10;7.60;;;7.00;;
2021;SDS011;1015;49.756;6.994;2023-06-10T07:36:40;7.43;;;6.47;;
2021;SDS011;1015;49.756;6.994;2023-06-10T07:39:07;7.20;;;6.60;;
2021;SDS011;1015;49.756;6.994;2023-06-10T07:41:36;8.23;;;7.43;;
2021;SDS011;1015;49.756;6.994;2023-06-10T07:44:04;6.57;;;6.03;;
2021;SDS011;1015;49.756;6.994;2023-06-10T07:46:31;7.67;;;7.10;;
2021;SDS011;1015;49.756;6.994;2023-06-10T07:48:58;7.10;;;6.50;;
2021;SDS011;1015;49.756;6.994;2023-06-10T07:51:26;7.60;;;7.00;;
2021;SDS011;1015;49.756;6.994;2023-06-10T07:53:53;7.70;;;7.03;;
2021;SDS011;1015;49.756;6.994;2023-06-10T07:56:20;7.83;;;7.10;;
2021;SDS011;1015;49.756;6.994;2023-06-10T07:58:49;7.30;;;6.70;;
2021;SDS011;1015;49.756;6.994;2023-06-10T08:01:16;7.20;;;6.50;;
2021;SDS011;1015;49.756;6.994;2023-06-10T08:03:43;6.83;;;6.23;;
2021;SDS011;1015;49.756;6.994;2023-06-10T08:06:10;7.33;;;6.77;;
2021;SDS011;1015;49.756;6.994;2023-06-10T08:08:38;6.70;;;6.20;;
2021;SDS011;1015;49.756;6.994;2023-06-10T08:11:08;7.43;;;6.60;;
2021;SDS011;1015;49.756;6.994;2023-06-10T08:13:35;7.20;;;6.70;;
2021;SDS011;1015;49.756;6.994;2023-06-10T08:16:04;7.80;;;7.20;;
2021;SDS011;1015;49.756;6.994;2023-06-10T08:18:31;7.70;;;7.00;;
2021;SDS011;1015;49.756;6.994;2023-06-10T08:20:58;6.57;;;6.07;;
2021;SDS011;1015;49.756;6.994;2023-06-10T08:23:26;7.90;;;7.20;;
2021;SDS011;1015;49.756;6.994;2023-06-10T08:25:53;7.37;;;6.67;;
2021;SDS011;1015;49.756;6.994;2023-06-10T08:28:20;7.13;;;6.53;;
2021;SDS011;1015;49.756;6.994;2023-06-10T08:30:47;7.53;;;6.93;;
2021;SDS011;1015;49.756;6.994;2023-06-10T08:33:16;10.40;;;6.77;;
2021;SDS011;1015;49.756;6.994;2023-06-10T08:35:43;7.90;;;7.30;;
2021;SDS011;1015;49.756;6.994;2023-06-10T08:38:10;7.43;;;6.83;;
2021;SDS011;1015;49.756;6.994;2023-06-10T08:40:38;7.10;;;6.50;;
2021;SDS011;1015;49.756;6.994;2023-06-10T08:43:05;7.30;;;6.60;;
2021;SDS011;1015;49.756;6.994;2023-06-10T08:45:34;7.50;;;6.80;;
2021;SDS011;1015;49.756;6.994;2023-06-10T08:48:02;7.80;;;7.20;;
2021;SDS011;1015;49.756;6.994;2023-06-10T08:50:32;7.67;;;6.97;;
2021;SDS011;1015;49.756;6.994;2023-06-10T08:53:01;7.10;;;6.60;;
2021;SDS011;1015;49.756;6.994;2023-06-10T08:55:29;6.73;;;6.23;;
2021;SDS011;1015;49.756;6.994;2023-06-10T08:57:57;7.40;;;6.70;;
2021;SDS011;1015;49.756;6.994;2023-06-10T09:00:24;7.47;;;6.87;;
2021;SDS011;1015;49.756;6.994;2023-06-10T09:02:53;7.50;;;6.90;;
2021;SDS011;1015;49.756;6.994;2023-06-10T09:05:20;7.77;;;7.17;;
2021;SDS011;1015;49.756;6.994;2023-06-10T09:07:48;7.30;;;6.70;;
2021;SDS011;1015;49.756;6.994;2023-06-10T09:10:16;7.10;;;6.50;;
2021;SDS011;1015;49.756;6.994;2023-06-10T09:12:43;7.77;;;6.97;;
2021;SDS011;1015;49.756;6.994;2023-06-10T09:15:10;7.60;;;6.90;;
2021;SDS011;1015;49.756;6.994;2023-06-10T09:17:39;6.93;;;6.33;;
2021;SDS011;1015;49.756;6.994;2023-06-10T09:20:07;7.47;;;6.80;;
2021;SDS011;1015;49.756;6.994;2023-06-10T09:22:34;7.20;;;6.60;;
2021;SDS011;1015;49.756;6.994;2023-06-10T09:25:03;6.80;;;6.30;;
2021;SDS011;1015;49.756;6.994;2023-06-10T09:30:36;7.50;;;6.90;;
2021;SDS011;1015;49.756;6.994;2023-06-10T09:33:09;7.33;;;6.67;;
2021;SDS011;1015;49.756;6.994;2023-06-10T09:35:37;7.07;;;6.57;;
2021;SDS011;1015;49.756;6.994;2023-06-10T09:38:11;7.43;;;6.87;;
2021;SDS011;1015;49.756;6.994;2023-06-10T09:40:43;7.50;;;6.90;;
2021;SDS011;1015;49.756;6.994;2023-06-10T09:43:15;7.47;;;6.93;;
2021;SDS011;1015;49.756;6.994;2023-06-10T09:45:42;6.70;;;6.20;;
2021;SDS011;1015;49.756;6.994;2023-06-10T09:48:09;6.80;;;6.30;;
2021;SDS011;1015;49.756;6.994;2023-06-10T09:50:41;7.40;;;6.40;;
2021;SDS011;1015;49.756;6.994;2023-06-10T09:53:09;6.40;;;5.77;;
2021;SDS011;1015;49.756;6.994;2023-06-10T09:55:37;6.43;;;5.93;;
2021;SDS011;1015;49.756;6.994;2023-06-10T09:58:06;6.50;;;6.00;;
2021;SDS011;1015;49.756;6.994;2023-06-10T10:00:33;6.60;;;6.10;;
2021;SDS011;1015;49.756;6.994;2023-06-10T10:03:01;6.63;;;6.13;;
2021;SDS011;1015;49.756;6.994;2023-06-10T10:05:28;6.90;;;6.30;;
2021;SDS011;1015;49.756;6.994;2023-06-10T10:07:56;6.50;;;6.00;;
2021;SDS011;1015;49.756;6.994;2023-06-10T10:10:23;6.53;;;6.03;;
2021;SDS011;1015;49.756;6.994;2023-06-10T10:12:53;6.30;;;5.87;;
2021;SDS011;1015;49.756;6.994;2023-06-10T10:15:23;6.13;;;5.70;;
2021;SDS011;1015;49.756;6.994;2023-06-10T10:17:52;6.10;;;5.60;;
2021;SDS011;1015;49.756;6.994;2023-06-10T10:20:21;6.20;;;5.60;;
2021;SDS011;1015;49.756;6.994;2023-06-10T10:22:49;5.77;;;5.37;;
2021;SDS011;1015;49.756;6.994;2023-06-10T10:25:21;6.60;;;6.03;;
2021;SDS011;1015;49.756;6.994;2023-06-10T10:27:50;6.37;;;5.40;;
2021;SDS011;1015;49.756;6.994;2023-06-10T10:30:19;6.10;;;5.60;;
2021;SDS011;1015;49.756;6.994;2023-06-10T10:32:52;6.53;;;6.03;;
2021;SDS011;1015;49.756;6.994;2023-06-10T10:35:22;6.27;;;5.67;;
2021;SDS011;1015;49.756;6.994;2023-06-10T10:37:50;6.73;;;5.90;;
2021;SDS011;1015;49.756;6.994;2023-06-10T10:40:18;5.67;;;4.93;;
2021;SDS011;1015;49.756;6.994;2023-06-10T10:42:46;6.30;;;5.70;;
2021;SDS011;1015;49.756;6.994;2023-06-10T10:45:14;6.53;;;6.10;;
2021;SDS011;1015;49.756;6.994;2023-06-10T10:47:42;5.77;;;5.27;;
2021;SDS011;1015;49.756;6.994;2023-06-10T10:50:15;5.83;;;5.43;;
2021;SDS011;1015;49.756;6.994;2023-06-10T10:52:52;5.73;;;5.23;;
2021;SDS011;1015;49.756;6.994;2023-06-10T10:55:20;5.53;;;5.03;;
2021;SDS011;1015;49.756;6.994;2023-06-10T10:57:55;5.77;;;5.27;;
2021;SDS011;1015;49.756;6.994;2023-06-10T11:00:28;6.10;;;5.60;;
2021;SDS011;1015;49.756;6.994;2023-06-10T11:05:44;5.60;;;5.20;;
2021;SDS011;1015;49.756;6.994;2023-06-10T11:08:14;5.00;;;4.57;;
2021;SDS011;1015;49.756;6.994;2023-06-10T11:10:42;4.57;;;4.17;;
2021;SDS011;1015;49.756;6.994;2023-06-10T11:13:19;4.80;;;4.30;;
2021;SDS011;1015;49.756;6.994;2023-06-10T11:15:47;5.63;;;5.17;;
2021;SDS011;1015;49.756;6.994;2023-06-10T11:18:21;5.20;;;4.80;;
2021;SDS011;1015;49.756;6.994;2023-06-10T11:20:57;6.50;;;5.90;;
2021;SDS011;1015;49.756;6.994;2023-06-10T11:23:38;6.13;;;5.60;;
2021;SDS011;1015;49.756;6.994;2023-06-10T11:26:12;5.60;;;5.13;;
2021;SDS011;1015;49.756;6.994;2023-06-10T11:28:40;5.13;;;4.70;;
2021;SDS011;1015;49.756;6.994;2023-06-10T11:31:08;5.73;;;5.17;;
2021;SDS011;1015;49.756;6.994;2023-06-10T11:33:36;5.47;;;5.00;;
2021;SDS011;1015;49.756;6.994;2023-06-10T11:36:07;5.53;;;5.03;;
2021;SDS011;1015;49.756;6.994;2023-06-10T11:38:35;5.20;;;4.90;;
2021;SDS011;1015;49.756;6.994;2023-06-10T11:41:03;5.43;;;5.03;;
2021;SDS011;1015;49.756;6.994;2023-06-10T11:43:30;7.43;;;4.60;;
2021;SDS011;1015;49.756;6.994;2023-06-10T11:45:57;6.10;;;5.70;;
2021;SDS011;1015;49.756;6.994;2023-06-10T11:48:25;5.53;;;5.03;;
2021;SDS011;1015;49.756;6.994;2023-06-10T11:50:53;5.50;;;5.10;;
2021;SDS011;1015;49.756;6.994;2023-06-10T11:53:22;5.00;;;4.70;;
2021;SDS011;1015;49.756;6.994;2023-06-10T11:55:49;5.43;;;5.03;;
2021;SDS011;1015;49.756;6.994;2023-06-10T11:58:17;4.83;;;4.40;;
2021;SDS011;1015;49.756;6.994;2023-06-10T12:00:45;5.97;;;5.47;;
2021;SDS011;1015;49.756;6.994;2023-06-10T12:03:13;6.27;;;5.77;;
2021;SDS011;1015;49.756;6.994;2023-06-10T12:05:40;6.27;;;5.67;;
2021;SDS011;1015;49.756;6.994;2023-06-10T12:08:08;6.03;;;5.53;;
2021;SDS011;1015;49.756;6.994;2023-06-10T12:10:40;6.10;;;5.60;;
2021;SDS011;1015;49.756;6.994;2023-06-10T12:13:08;6.53;;;5.50;;
2021;SDS011;1015;49.756;6.994;2023-06-10T12:15:35;5.93;;;5.53;;
2021;SDS011;1015;49.756;6.994;2023-06-10T12:18:02;6.93;;;6.23;;
2021;SDS011;1015;49.756;6.994;2023-06-10T12:20:30;6.33;;;5.83;;
2021;SDS011;1015;49.756;6.994;2023-06-10T12:22:58;6.60;;;6.00;;
2021;SDS011;1015;49.756;6.994;2023-06-10T12:25:26;5.87;;;5.43;;
2021;SDS011;1015;49.756;6.994;2023-06-10T12:27:56;6.40;;;5.80;;
2021;SDS011;1015;49.756;6.994;2023-06-10T12:30:24;8.40;;;5.83;;
2021;SDS011;1015;49.756;6.994;2023-06-10T12:32:52;6.30;;;5.80;;
2021;SDS011;1015;49.756;6.994;2023-06-10T12:35:21;6.53;;;6.03;;
2021;SDS011;1015;49.756;6.994;2023-06-10T12:37:56;6.60;;;6.00;;
2021;SDS011;1015;49.756;6.994;2023-06-10T12:40:27;7.10;;;6.60;;
2021;SDS011;1015;49.756;6.994;2023-06-10T12:42:58;6.70;;;6.20;;
2021;SDS011;1015;49.756;6.994;2023-06-10T12:45:28;7.27;;;6.60;;
2021;SDS011;1015;49.756;6.994;2023-06-10T12:48:05;6.83;;;6.33;;
2021;SDS011;1015;49.756;6.994;2023-06-10T12:50:34;8.17;;;6.30;;
2021;SDS011;1015;49.756;6.994;2023-06-10T12:53:02;7.47;;;6.87;;
2021;SDS011;1015;49.756;6.994;2023-06-10T12:55:29;6.30;;;5.80;;
2021;SDS011;1015;49.756;6.994;2023-06-10T12:57:59;6.13;;;5.70;;
2021;SDS011;1015;49.756;6.994;2023-06-10T13:00:26;7.77;;;7.07;;
2021;SDS011;1015;49.756;6.994;2023-06-10T13:02:55;7.10;;;6.50;;
2021;SDS011;1015;49.756;6.994;2023-06-10T13:05:22;6.83;;;6.13;;
2021;SDS011;1015;49.756;6.994;2023-06-10T13:07:50;13.17;;;6.80;;
2021;SDS011;1015;49.756;6.994;2023-06-10T13:10:17;8.30;;;6.13;;
2021;SDS011;1015;49.756;6.994;2023-06-10T13:12:44;7.47;;;6.77;;
2021;SDS011;1015;49.756;6.994;2023-06-10T13:15:14;6.87;;;6.37;;
2021;SDS011;1015;49.756;6.994;2023-06-10T13:17:41;6.13;;;5.53;;
2021;SDS011;1015;49.756;6.994;2023-06-10T13:20:09;6.23;;;5.47;;
2021;SDS011;1015;49.756;6.994;2023-06-10T13:22:36;5.90;;;5.50;;
2021;SDS011;1015;49.756;6.994;2023-06-10T13:25:04;6.40;;;5.90;;
2021;SDS011;1015;49.756;6.994;2023-06-10T13:27:32;7.20;;;5.70;;
2021;SDS011;1015;49.756;6.994;2023-06-10T13:30:00;6.00;;;5.60;;
2021;SDS011;1015;49.756;6.994;2023-06-10T13:32:28;5.30;;;4.90;;
2021;SDS011;1015;49.756;6.994;2023-06-10T13:34:56;6.07;;;5.57;;
2021;SDS011;1015;49.756;6.994;2023-06-10T13:37:23;6.20;;;5.70;;
2021;SDS011;1015;49.756;6.994;2023-06-10T13:39:50;5.73;;;5.23;;
2021;SDS011;1015;49.756;6.994;2023-06-10T13:42:17;6.13;;;5.63;;
2021;SDS011;1015;49.756;6.994;2023-06-10T13:44:45;5.57;;;5.07;;
2021;SDS011;1015;49.756;6.994;2023-06-10T13:47:13;5.60;;;5.20;;
2021;SDS011;1015;49.756;6.994;2023-06-10T13:49:42;6.00;;;5.30;;
2021;SDS011;1015;49.756;6.994;2023-06-10T13:52:09;6.93;;;6.33;;
2021;SDS011;1015;49.756;6.994;2023-06-10T13:54:36;6.30;;;5.90;;
2021;SDS011;1015;49.756;6.994;2023-06-10T13:57:04;6.60;;;6.00;;
2021;SDS011;1015;49.756;6.994;2023-06-10T13:59:31;7.67;;;6.67;;
2021;SDS011;1015;49.756;6.994;2023-06-10T14:01:58;7.10;;;6.50;;
2021;SDS011;1015;49.756;6.994;2023-06-10T14:04:26;7.07;;;6.40;;
2021;SDS011;1015;49.756;6.994;2023-06-10T14:06:55;7.47;;;6.73;;
2021;SDS011;1015;49.756;6.994;2023-06-10T14:09:22;6.90;;;6.30;;
2021;SDS011;1015;49.756;6.994;2023-06-10T14:11:49;6.17;;;5.77;;
2021;SDS011;1015;49.756;6.994;2023-06-10T14:14:17;6.70;;;6.23;;
2021;SDS011;1015;49.756;6.994;2023-06-10T14:16:44;7.50;;;6.90;;
2021;SDS011;1015;49.756;6.994;2023-06-10T14:19:11;7.13;;;6.60;;
2021;SDS011;1015;49.756;6.994;2023-06-10T14:21:38;7.13;;;6.63;;
2021;SDS011;1015;49.756;6.994;2023-06-10T14:24:07;7.37;;;6.87;;
2021;SDS011;1015;49.756;6.994;2023-06-10T14:26:34;6.73;;;6.23;;
2021;SDS011;1015;49.756;6.994;2023-06-10T14:29:01;6.93;;;6.43;;
2021;SDS011;1015;49.756;6.994;2023-06-10T14:31:29;6.50;;;5.93;;
2021;SDS011;1015;49.756;6.994;2023-06-10T14:33:56;6.63;;;6.13;;
2021;SDS011;1015;49.756;6.994;2023-06-10T14:36:23;6.53;;;6.10;;
2021;SDS011;1015;49.756;6.994;2023-06-10T14:38:51;6.97;;;6.40;;
2021;SDS011;1015;49.756;6.994;2023-06-10T14:41:20;6.70;;;6.20;;
2021;SDS011;1015;49.756;6.994;2023-06-10T14:43:47;6.83;;;6.33;;
2021;SDS011;1015;49.756;6.994;2023-06-10T14:46:14;6.50;;;6.00;;
2021;SDS011;1015;49.756;6.994;2023-06-10T14:48:42;6.37;;;5.87;;
2021;SDS011;1015;49.756;6.994;2023-06-10T14:51:09;6.30;;;5.80;;
2021;SDS011;1015;49.756;6.994;2023-06-10T14:53:36;6.80;;;6.27;;
2021;SDS011;1015;49.756;6.994;2023-06-10T14:56:04;6.60;;;6.10;;
2021;SDS011;1015;49.756;6.994;2023-06-10T14:58:32;6.83;;;6.23;;
2021;SDS011;1015;49.756;6.994;2023-06-10T15:01:00;6.60;;;6.00;;
2021;SDS011;1015;49.756;6.994;2023-06-10T15:03:27;6.90;;;6.40;;
2021;SDS011;1015;49.756;6.994;2023-06-10T15:05:54;6.47;;;5.97;;
2021;SDS011;1015;49.756;6.994;2023-06-10T15:08:22;6.60;;;6.10;;
2021;SDS011;1015;49.756;6.994;2023-06-10T15:10:49;6.20;;;5.70;;
2021;SDS011;1015;49.756;6.994;2023-06-10T15:13:16;6.70;;;6.20;;
2021;SDS011;1015;49.756;6.994;2023-06-10T15:15:45;7.50;;;7.00;;
2021;SDS011;1015;49.756;6.994;2023-06-10T15:18:12;8.30;;;7.70;;